sensor_id;sensor_type;location;lat;lon;timestamp;pressure;altitude;pressure_sealevel;temperature;humidity
71195;BME280;58908;51.426;7.714;2024-02-04T00:00:54;100385.97;;;9.56;100.00
71195;BME280;58908;51.426;7.714;2024-02-04T00:03:21;100397.19;;;9.59;100.00
71195;BME280;58908;51.426;7.714;2024-02-04T00:05:48;100392.78;;;9.60;100.00
71195;BME280;58908;51.426;7.714;2024-02-04T00:08:14;100385.34;;;9.49;100.00
71195;BME280;58908;51.426;7.714;2024-02-04T00:10:42;100379.75;;;9.57;100.00
71195;BME280;58908;51.426;7.714;2024-02-04T00:13:08;100378.94;;;9.55;100.00
71195;BME280;58908;51.426;7.714;2024-02-04T00:15:34;100385.03;;;9.57;100.00
71195;BME280;58908;51.426;7.714;2024-02-04T00:18:00;100376.94;;;9.61;100.00
71195;BME280;58908;51.426;7.714;2024-02-04T00:20:28;100378.75;;;9.59;100.00
71195;BME280;58908;51.426;7.714;2024-02-04T00:22:57;100377.91;;;9.59;100.00
71195;BME280;58908;51.426;7.714;2024-02-04T00:25:23;100377.03;;;9.58;100.00
71195;BME280;58908;51.426;7.714;2024-02-04T00:27:50;100375.44;;;9.56;100.00
71195;BME280;58908;51.426;7.714;2024-02-04T00:30:16;100380.00;;;9.51;100.00
71195;BME280;58908;51.426;7.714;2024-02-04T00:32:42;100368.56;;;9.52;100.00
71195;BME280;58908;51.426;7.714;2024-02-04T00:35:08;100375.44;;;9.56;100.00
71195;BME280;58908;51.426;7.714;2024-02-04T00:37:36;100376.31;;;9.55;100.00
71195;BME280;58908;51.426;7.714;2024-02-04T00:40:02;100376.25;;;9.56;100.00
71195;BME280;58908;51.426;7.714;2024-02-04T00:42:29;100374.50;;;9.57;100.00
71195;BME280;58908;51.426;7.714;2024-02-04T00:44:55;100378.94;;;9.55;100.00
71195;BME280;58908;51.426;7.714;2024-02-04T00:47:21;100371.97;;;9.54;100.00
71195;BME280;58908;51.426;7.714;2024-02-04T00:49:47;100387.31;;;9.44;100.00
71195;BME280;58908;51.426;7.714;2024-02-04T00:52:14;100380.22;;;9.46;100.00
71195;BME280;58908;51.426;7.714;2024-02-04T00:54:41;100375.91;;;9.44;100.00
71195;BME280;58908;51.426;7.714;2024-02-04T00:57:08;100379.28;;;9.47;100.00
71195;BME280;58908;51.426;7.714;2024-02-04T00:59:34;100365.34;;;9.45;100.00
71195;BME280;58908;51.426;7.714;2024-02-04T01:02:00;100369.09;;;9.40;100.00
71195;BME280;58908;51.426;7.714;2024-02-04T01:04:26;100367.13;;;9.45;100.00
71195;BME280;58908;51.426;7.714;2024-02-04T01:06:53;100370.75;;;9.43;100.00
71195;BME280;58908;51.426;7.714;2024-02-04T01:09:19;100361.03;;;9.43;100.00
71195;BME280;58908;51.426;7.714;2024-02-04T01:11:46;100359.28;;;9.43;100.00
71195;BME280;58908;51.426;7.714;2024-02-04T01:14:13;100351.44;;;9.42;100.00
71195;BME280;58908;51.426;7.714;2024-02-04T01:16:39;100359.53;;;9.38;100.00
71195;BME280;58908;51.426;7.714;2024-02-04T01:19:05;100355.91;;;9.40;100.00
71195;BME280;58908;51.426;7.714;2024-02-04T01:21:32;100358.50;;;9.42;100.00
71195;BME280;58908;51.426;7.714;2024-02-04T01:23:58;100360.13;;;9.44;100.00
71195;BME280;58908;51.426;7.714;2024-02-04T01:26:24;100359.16;;;9.46;100.00
71195;BME280;58908;51.426;7.714;2024-02-04T01:28:52;100363.63;;;9.44;100.00
71195;BME280;58908;51.426;7.714;2024-02-04T01:31:18;100380.06;;;9.49;100.00
71195;BME280;58908;51.426;7.714;2024-02-04T01:33:44;100390.22;;;9.58;100.00
71195;BME280;58908;51.426;7.714;2024-02-04T01:36:10;100390.50;;;9.52;100.00
71195;BME280;58908;51.426;7.714;2024-02-04T01:38:36;100374.09;;;9.46;100.00
71195;BME280;58908;51.426;7.714;2024-02-04T01:41:03;100364.28;;;9.49;100.00
71195;BME280;58908;51.426;7.714;2024-02-04T01:43:29;100362.38;;;9.33;100.00
71195;BME280;58908;51.426;7.714;2024-02-04T01:45:57;100353.22;;;9.42;100.00
71195;BME280;58908;51.426;7.714;2024-02-04T01:48:23;100354.84;;;9.44;100.00
71195;BME280;58908;51.426;7.714;2024-02-04T01:50:51;100354.84;;;9.44;100.00
71195;BME280;58908;51.426;7.714;2024-02-04T01:53:19;100341.50;;;9.48;100.00
71195;BME280;58908;51.426;7.714;2024-02-04T01:55:48;100339.88;;;9.46;100.00
71195;BME280;58908;51.426;7.714;2024-02-04T01:58:15;100338.38;;;9.41;100.00
71195;BME280;58908;51.426;7.714;2024-02-04T02:00:41;100329.44;;;9.43;100.00
71195;BME280;58908;51.426;7.714;2024-02-04T02:03:10;100331.38;;;9.40;100.00
71195;BME280;58908;51.426;7.714;2024-02-04T02:05:37;100329.34;;;9.46;100.00
71195;BME280;58908;51.426;7.714;2024-02-04T02:08:04;100331.78;;;9.50;100.00
71195;BME280;58908;51.426;7.714;2024-02-04T02:10:29;100318.88;;;9.44;100.00
71195;BME280;58908;51.426;7.714;2024-02-04T02:12:56;100309.44;;;9.39;100.00
71195;BME280;58908;51.426;7.714;2024-02-04T02:15:25;100316.28;;;9.43;100.00
71195;BME280;58908;51.426;7.714;2024-02-04T02:17:55;100309.13;;;9.46;100.00
71195;BME280;58908;51.426;7.714;2024-02-04T02:20:25;100306.63;;;9.43;100.00
71195;BME280;58908;51.426;7.714;2024-02-04T02:22:56;100309.91;;;9.48;100.00
71195;BME280;58908;51.426;7.714;2024-02-04T02:25:27;100307.34;;;9.47;100.00
71195;BME280;58908;51.426;7.714;2024-02-04T02:27:54;100302.72;;;9.52;100.00
71195;BME280;58908;51.426;7.714;2024-02-04T02:30:20;100314.13;;;9.52;100.00
71195;BME280;58908;51.426;7.714;2024-02-04T02:32:46;100308.91;;;9.51;100.00
71195;BME280;58908;51.426;7.714;2024-02-04T02:35:14;100310.72;;;9.50;100.00
71195;BME280;58908;51.426;7.714;2024-02-04T02:37:42;100307.66;;;9.59;100.00
71195;BME280;58908;51.426;7.714;2024-02-04T02:40:10;100303.78;;;9.48;100.00
71195;BME280;58908;51.426;7.714;2024-02-04T02:42:40;100311.97;;;9.60;100.00
71195;BME280;58908;51.426;7.714;2024-02-04T02:45:06;100306.28;;;9.51;100.00
71195;BME280;58908;51.426;7.714;2024-02-04T02:47:33;100305.31;;;9.53;100.00
71195;BME280;58908;51.426;7.714;2024-02-04T02:50:00;100308.56;;;9.58;100.00
71195;BME280;58908;51.426;7.714;2024-02-04T02:52:26;100301.34;;;9.63;100.00
71195;BME280;58908;51.426;7.714;2024-02-04T02:54:52;100304.81;;;9.64;100.00
71195;BME280;58908;51.426;7.714;2024-02-04T02:57:18;100303.97;;;9.63;100.00
71195;BME280;58908;51.426;7.714;2024-02-04T02:59:46;100310.75;;;9.69;100.00
71195;BME280;58908;51.426;7.714;2024-02-04T03:02:12;100303.81;;;9.66;100.00
71195;BME280;58908;51.426;7.714;2024-02-04T03:04:39;100310.66;;;9.70;100.00
71195;BME280;58908;51.426;7.714;2024-02-04T03:07:05;100303.31;;;9.77;100.00
71195;BME280;58908;51.426;7.714;2024-02-04T03:09:32;100316.25;;;9.83;100.00
71195;BME280;58908;51.426;7.714;2024-02-04T03:11:59;100311.22;;;9.77;100.00
71195;BME280;58908;51.426;7.714;2024-02-04T03:14:25;100312.69;;;9.84;100.00
71195;BME280;58908;51.426;7.714;2024-02-04T03:16:52;100313.59;;;9.83;100.00
71195;BME280;58908;51.426;7.714;2024-02-04T03:19:19;100312.69;;;9.84;100.00
71195;BME280;58908;51.426;7.714;2024-02-04T03:21:46;100313.81;;;9.78;100.00
71195;BME280;58908;51.426;7.714;2024-02-04T03:24:12;100302.19;;;9.82;100.00
71195;BME280;58908;51.426;7.714;2024-02-04T03:26:39;100311.59;;;9.88;100.00
71195;BME280;58908;51.426;7.714;2024-02-04T03:29:05;100316.28;;;9.81;100.00
71195;BME280;58908;51.426;7.714;2024-02-04T03:31:31;100311.59;;;9.88;100.00
71195;BME280;58908;51.426;7.714;2024-02-04T03:33:59;100306.44;;;9.86;100.00
71195;BME280;58908;51.426;7.714;2024-02-04T03:36:27;100302.28;;;9.81;100.00
71195;BME280;58908;51.426;7.714;2024-02-04T03:38:53;100313.59;;;9.83;100.00
71195;BME280;58908;51.426;7.714;2024-02-04T03:41:19;100319.03;;;9.80;100.00
71195;BME280;58908;51.426;7.714;2024-02-04T03:43:45;100319.59;;;9.86;100.00
71195;BME280;58908;51.426;7.714;2024-02-04T03:46:12;100315.16;;;9.68;100.00
71195;BME280;58908;51.426;7.714;2024-02-04T03:48:39;100315.47;;;9.81;100.00
71195;BME280;58908;51.426;7.714;2024-02-04T03:51:06;100310.25;;;9.79;100.00
71195;BME280;58908;51.426;7.714;2024-02-04T03:53:32;100310.41;;;9.76;100.00
71195;BME280;58908;51.426;7.714;2024-02-04T03:55:59;100310.34;;;9.78;100.00
71195;BME280;58908;51.426;7.714;2024-02-04T03:58:25;100306.34;;;9.88;100.00
71195;BME280;58908;51.426;7.714;2024-02-04T04:00:55;100293.50;;;9.80;100.00
71195;BME280;58908;51.426;7.714;2024-02-04T04:03:21;100298.66;;;9.83;100.00
71195;BME280;58908;51.426;7.714;2024-02-04T04:05:48;100309.13;;;9.85;100.00
71195;BME280;58908;51.426;7.714;2024-02-04T04:08:15;100318.31;;;9.95;100.00
71195;BME280;58908;51.426;7.714;2024-02-04T04:10:43;100315.25;;;9.85;100.00
71195;BME280;58908;51.426;7.714;2024-02-04T04:13:09;100324.78;;;9.88;100.00
71195;BME280;58908;51.426;7.714;2024-02-04T04:15:35;100314.69;;;9.79;100.00
71195;BME280;58908;51.426;7.714;2024-02-04T04:18:01;100317.94;;;9.84;100.00
71195;BME280;58908;51.426;7.714;2024-02-04T04:20:28;100314.75;;;9.77;100.00
71195;BME280;58908;51.426;7.714;2024-02-04T04:22:54;100314.47;;;9.83;100.00
71195;BME280;58908;51.426;7.714;2024-02-04T04:25:21;100316.25;;;9.83;100.00
71195;BME280;58908;51.426;7.714;2024-02-04T04:27:48;100311.69;;;9.86;100.00
71195;BME280;58908;51.426;7.714;2024-02-04T04:30:14;100311.91;;;9.82;100.00
71195;BME280;58908;51.426;7.714;2024-02-04T04:32:40;100315.31;;;9.84;100.00
71195;BME280;58908;51.426;7.714;2024-02-04T04:35:07;100307.47;;;9.82;100.00
71195;BME280;58908;51.426;7.714;2024-02-04T04:37:33;100309.06;;;9.86;100.00
71195;BME280;58908;51.426;7.714;2024-02-04T04:39:59;100315.16;;;9.87;100.00
71195;BME280;58908;51.426;7.714;2024-02-04T04:42:27;100309.91;;;9.87;100.00
71195;BME280;58908;51.426;7.714;2024-02-04T04:44:53;100305.66;;;9.84;100.00
71195;BME280;58908;51.426;7.714;2024-02-04T04:47:19;100317.31;;;9.79;100.00
71195;BME280;58908;51.426;7.714;2024-02-04T04:49:45;100314.53;;;9.82;100.00
71195;BME280;58908;51.426;7.714;2024-02-04T04:52:12;100323.88;;;9.89;100.00
71195;BME280;58908;51.426;7.714;2024-02-04T04:54:39;100314.59;;;9.80;100.00
71195;BME280;58908;51.426;7.714;2024-02-04T04:57:05;100318.16;;;9.79;100.00
71195;BME280;58908;51.426;7.714;2024-02-04T04:59:32;100310.91;;;9.84;100.00
71195;BME280;58908;51.426;7.714;2024-02-04T05:02:01;100304.63;;;9.87;100.00
71195;BME280;58908;51.426;7.714;2024-02-04T05:04:27;100287.69;;;9.92;100.00
71195;BME280;58908;51.426;7.714;2024-02-04T05:06:53;100294.38;;;9.99;100.00
71195;BME280;58908;51.426;7.714;2024-02-04T05:09:19;100290.75;;;9.83;100.00
71195;BME280;58908;51.426;7.714;2024-02-04T05:11:46;100293.88;;;9.91;100.00
71195;BME280;58908;51.426;7.714;2024-02-04T05:14:12;100304.06;;;9.99;100.00
71195;BME280;58908;51.426;7.714;2024-02-04T05:16:39;100295.75;;;9.89;100.00
71195;BME280;58908;51.426;7.714;2024-02-04T05:19:09;100296.16;;;9.80;100.00
71195;BME280;58908;51.426;7.714;2024-02-04T05:21:37;100298.72;;;9.82;100.00
71195;BME280;58908;51.426;7.714;2024-02-04T05:24:04;100311.53;;;9.89;100.00
71195;BME280;58908;51.426;7.714;2024-02-04T05:26:30;100316.75;;;9.91;100.00
71195;BME280;58908;51.426;7.714;2024-02-04T05:28:56;100303.94;;;9.83;100.00
71195;BME280;58908;51.426;7.714;2024-02-04T05:31:22;100306.44;;;9.86;100.00
71195;BME280;58908;51.426;7.714;2024-02-04T05:33:50;100298.53;;;9.86;100.00
71195;BME280;58908;51.426;7.714;2024-02-04T05:36:17;100303.84;;;9.85;100.00
71195;BME280;58908;51.426;7.714;2024-02-04T05:38:44;100296.09;;;9.82;100.00
71195;BME280;58908;51.426;7.714;2024-02-04T05:41:11;100296.94;;;9.82;100.00
71195;BME280;58908;51.426;7.714;2024-02-04T05:43:37;100296.50;;;9.91;100.00
71195;BME280;58908;51.426;7.714;2024-02-04T05:46:04;100296.16;;;9.80;100.00
71195;BME280;58908;51.426;7.714;2024-02-04T05:48:30;100299.66;;;9.81;100.00
71195;BME280;58908;51.426;7.714;2024-02-04T05:50:58;100304.16;;;9.79;100.00
71195;BME280;58908;51.426;7.714;2024-02-04T05:53:25;100294.22;;;9.84;100.00
71195;BME280;58908;51.426;7.714;2024-02-04T05:55:51;100300.56;;;9.80;100.00
71195;BME280;58908;51.426;7.714;2024-02-04T05:58:17;100292.53;;;9.83;100.00
71195;BME280;58908;51.426;7.714;2024-02-04T06:00:43;100284.84;;;9.78;100.00
71195;BME280;58908;51.426;7.714;2024-02-04T06:03:10;100297.84;;;9.81;100.00
71195;BME280;58908;51.426;7.714;2024-02-04T06:05:36;100302.28;;;9.81;100.00
71195;BME280;58908;51.426;7.714;2024-02-04T06:08:04;100311.22;;;9.77;100.00
71195;BME280;58908;51.426;7.714;2024-02-04T06:10:30;100315.66;;;9.76;100.00
71195;BME280;58908;51.426;7.714;2024-02-04T06:12:57;100309.25;;;9.82;100.00
71195;BME280;58908;51.426;7.714;2024-02-04T06:15:23;100309.53;;;9.76;100.00
71195;BME280;58908;51.426;7.714;2024-02-04T06:17:49;100311.84;;;9.83;100.00
71195;BME280;58908;51.426;7.714;2024-02-04T06:20:16;100311.53;;;9.71;100.00
71195;BME280;58908;51.426;7.714;2024-02-04T06:22:42;100305.19;;;9.75;100.00
71195;BME280;58908;51.426;7.714;2024-02-04T06:25:10;100295.38;;;9.78;100.00
71195;BME280;58908;51.426;7.714;2024-02-04T06:27:36;100292.16;;;9.72;100.00
71195;BME280;58908;51.426;7.714;2024-02-04T06:30:02;100285.25;;;9.69;100.00
71195;BME280;58908;51.426;7.714;2024-02-04T06:32:29;100283.53;;;9.68;100.00
71195;BME280;58908;51.426;7.714;2024-02-04T06:34:55;100288.81;;;9.68;100.00
71195;BME280;58908;51.426;7.714;2024-02-04T06:37:21;100286.38;;;9.82;100.00
71195;BME280;58908;51.426;7.714;2024-02-04T06:39:48;100291.19;;;9.74;100.00
71195;BME280;58908;51.426;7.714;2024-02-04T06:42:15;100288.53;;;9.74;100.00
71195;BME280;58908;51.426;7.714;2024-02-04T06:44:42;100288.38;;;9.77;100.00
71195;BME280;58908;51.426;7.714;2024-02-04T06:47:08;100287.81;;;9.71;100.00
71195;BME280;58908;51.426;7.714;2024-02-04T06:49:37;100281.63;;;9.72;100.00
71195;BME280;58908;51.426;7.714;2024-02-04T06:52:03;100273.56;;;9.75;100.00
71195;BME280;58908;51.426;7.714;2024-02-04T06:54:30;100256.00;;;9.75;100.00
71195;BME280;58908;51.426;7.714;2024-02-04T06:56:56;100252.69;;;9.70;100.00
71195;BME280;58908;51.426;7.714;2024-02-04T06:59:24;100259.81;;;9.68;100.00
71195;BME280;58908;51.426;7.714;2024-02-04T07:01:50;100252.59;;;9.73;100.00
71195;BME280;58908;51.426;7.714;2024-02-04T07:04:18;100249.66;;;9.61;100.00
71195;BME280;58908;51.426;7.714;2024-02-04T07:06:46;100236.22;;;9.67;100.00
71195;BME280;58908;51.426;7.714;2024-02-04T07:09:12;100236.28;;;9.65;100.00
71195;BME280;58908;51.426;7.714;2024-02-04T07:11:39;100232.66;;;9.68;100.00
71195;BME280;58908;51.426;7.714;2024-02-04T07:14:05;100232.66;;;9.68;100.00
71195;BME280;58908;51.426;7.714;2024-02-04T07:16:32;100241.03;;;9.76;100.00
71195;BME280;58908;51.426;7.714;2024-02-04T07:18:59;100245.53;;;9.74;100.00
71195;BME280;58908;51.426;7.714;2024-02-04T07:21:25;100247.16;;;9.76;100.00
71195;BME280;58908;51.426;7.714;2024-02-04T07:23:51;100250.00;;;9.72;100.00
71195;BME280;58908;51.426;7.714;2024-02-04T07:26:17;100255.06;;;9.76;100.00
71195;BME280;58908;51.426;7.714;2024-02-04T07:28:44;100271.09;;;9.72;100.00
71195;BME280;58908;51.426;7.714;2024-02-04T07:31:10;100279.03;;;9.70;100.00
71195;BME280;58908;51.426;7.714;2024-02-04T07:33:37;100277.44;;;9.68;100.00
71195;BME280;58908;51.426;7.714;2024-02-04T07:36:04;100264.88;;;9.73;100.00
71195;BME280;58908;51.426;7.714;2024-02-04T07:38:30;100260.41;;;9.75;100.00
71195;BME280;58908;51.426;7.714;2024-02-04T07:40:56;100259.03;;;9.66;100.00
71195;BME280;58908;51.426;7.714;2024-02-04T07:43:24;100253.72;;;9.68;100.00
71195;BME280;58908;51.426;7.714;2024-02-04T07:45:50;100259.09;;;9.65;100.00
71195;BME280;58908;51.426;7.714;2024-02-04T07:48:17;100264.88;;;9.73;100.00
71195;BME280;58908;51.426;7.714;2024-02-04T07:50:45;100250.78;;;9.74;100.00
71195;BME280;58908;51.426;7.714;2024-02-04T07:53:12;100253.28;;;9.77;100.00
71195;BME280;58908;51.426;7.714;2024-02-04T07:55:38;100249.75;;;9.78;100.00
71195;BME280;58908;51.426;7.714;2024-02-04T07:58:04;100255.22;;;9.73;100.00
71195;BME280;58908;51.426;7.714;2024-02-04T08:00:31;100251.31;;;9.82;100.00
71195;BME280;58908;51.426;7.714;2024-02-04T08:02:57;100259.94;;;9.85;100.00
71195;BME280;58908;51.426;7.714;2024-02-04T08:05:23;100255.44;;;9.87;100.00
71195;BME280;58908;51.426;7.714;2024-02-04T08:07:51;100249.22;;;9.88;100.00
71195;BME280;58908;51.426;7.714;2024-02-04T08:10:17;100250.16;;;9.87;100.00
71195;BME280;58908;51.426;7.714;2024-02-04T08:12:43;100261.53;;;9.88;100.00
71195;BME280;58908;51.426;7.714;2024-02-04T08:15:15;100264.88;;;9.91;100.00
71195;BME280;58908;51.426;7.714;2024-02-04T08:17:41;100267.47;;;9.93;100.00
71195;BME280;58908;51.426;7.714;2024-02-04T08:20:08;100272.53;;;9.97;100.00
71195;BME280;58908;51.426;7.714;2024-02-04T08:22:34;100270.09;;;9.93;100.00
71195;BME280;58908;51.426;7.714;2024-02-04T08:25:02;100258.06;;;9.87;100.00
71195;BME280;58908;51.426;7.714;2024-02-04T08:27:28;100269.38;;;9.89;100.00
71195;BME280;58908;51.426;7.714;2024-02-04T08:29:55;100262.41;;;9.88;100.00
71195;BME280;58908;51.426;7.714;2024-02-04T08:32:21;100263.28;;;9.89;100.00
71195;BME280;58908;51.426;7.714;2024-02-04T08:34:47;100260.66;;;9.89;100.00
71195;BME280;58908;51.426;7.714;2024-02-04T08:37:13;100260.34;;;9.95;100.00
71195;BME280;58908;51.426;7.714;2024-02-04T08:39:39;100263.28;;;9.89;100.00
71195;BME280;58908;51.426;7.714;2024-02-04T08:42:07;100263.03;;;9.93;100.00
71195;BME280;58908;51.426;7.714;2024-02-04T08:44:33;100269.22;;;9.92;100.00
71195;BME280;58908;51.426;7.714;2024-02-04T08:47:00;100266.59;;;9.92;100.00
71195;BME280;58908;51.426;7.714;2024-02-04T08:49:26;100260.56;;;9.90;100.00
71195;BME280;58908;51.426;7.714;2024-02-04T08:51:52;100259.84;;;9.87;100.00
71195;BME280;58908;51.426;7.714;2024-02-04T08:54:18;100264.41;;;9.83;100.00
71195;BME280;58908;51.426;7.714;2024-02-04T08:56:44;100259.78;;;9.88;100.00
71195;BME280;58908;51.426;7.714;2024-02-04T08:59:12;100263.41;;;9.86;100.00
71195;BME280;58908;51.426;7.714;2024-02-04T09:01:38;100256.28;;;9.88;100.00
71195;BME280;58908;51.426;7.714;2024-02-04T09:04:04;100264.06;;;9.91;100.00
71195;BME280;58908;51.426;7.714;2024-02-04T09:06:31;100254.22;;;9.94;100.00
71195;BME280;58908;51.426;7.714;2024-02-04T09:08:57;100263.19;;;9.90;100.00
71195;BME280;58908;51.426;7.714;2024-02-04T09:11:23;100267.75;;;9.87;100.00
71195;BME280;58908;51.426;7.714;2024-02-04T09:13:49;100280.53;;;9.76;100.00
71195;BME280;58908;51.426;7.714;2024-02-04T09:16:17;100280.53;;;9.76;100.00
71195;BME280;58908;51.426;7.714;2024-02-04T09:18:43;100287.75;;;9.72;100.00
71195;BME280;58908;51.426;7.714;2024-02-04T09:21:10;100286.88;;;9.72;100.00
71195;BME280;58908;51.426;7.714;2024-02-04T09:23:37;100282.69;;;9.68;100.00
71195;BME280;58908;51.426;7.714;2024-02-04T09:26:03;100284.97;;;9.75;100.00
71195;BME280;58908;51.426;7.714;2024-02-04T09:28:29;100284.06;;;9.76;100.00
71195;BME280;58908;51.426;7.714;2024-02-04T09:30:56;100276.97;;;9.77;100.00
71195;BME280;58908;51.426;7.714;2024-02-04T09:33:24;100276.19;;;9.75;100.00
71195;BME280;58908;51.426;7.714;2024-02-04T09:35:50;100267.47;;;9.74;100.00
71195;BME280;58908;51.426;7.714;2024-02-04T09:38:16;100279.41;;;9.81;100.00
71195;BME280;58908;51.426;7.714;2024-02-04T09:40:43;100273.31;;;9.81;100.00
71195;BME280;58908;51.426;7.714;2024-02-04T09:43:09;100272.44;;;9.80;100.00
71195;BME280;58908;51.426;7.714;2024-02-04T09:45:36;100269.75;;;9.82;100.00
71195;BME280;58908;51.426;7.714;2024-02-04T09:48:03;100268.19;;;9.78;100.00
71195;BME280;58908;51.426;7.714;2024-02-04T09:50:30;100271.97;;;9.72;100.00
71195;BME280;58908;51.426;7.714;2024-02-04T09:52:58;100274.91;;;9.65;100.00
71195;BME280;58908;51.426;7.714;2024-02-04T09:55:24;100273.94;;;9.67;100.00
71195;BME280;58908;51.426;7.714;2024-02-04T09:57:51;100273.00;;;9.68;100.00
71195;BME280;58908;51.426;7.714;2024-02-04T10:00:18;100272.00;;;9.52;100.00
71195;BME280;58908;51.426;7.714;2024-02-04T10:02:44;100275.97;;;9.61;100.00
71195;BME280;58908;51.426;7.714;2024-02-04T10:05:11;100277.53;;;9.65;100.00
71195;BME280;58908;51.426;7.714;2024-02-04T10:07:38;100272.97;;;9.50;100.00
71195;BME280;58908;51.426;7.714;2024-02-04T10:10:05;100275.25;;;9.57;100.00
71195;BME280;58908;51.426;7.714;2024-02-04T10:12:32;100277.63;;;9.63;100.00
71195;BME280;58908;51.426;7.714;2024-02-04T10:15:00;100279.00;;;9.72;100.00
71195;BME280;58908;51.426;7.714;2024-02-04T10:17:27;100270.66;;;9.62;100.00
71195;BME280;58908;51.426;7.714;2024-02-04T10:19:54;100270.31;;;9.70;100.00
71195;BME280;58908;51.426;7.714;2024-02-04T10:22:20;100264.25;;;9.68;100.00
71195;BME280;58908;51.426;7.714;2024-02-04T10:24:48;100261.19;;;9.77;100.00
71195;BME280;58908;51.426;7.714;2024-02-04T10:27:14;100245.16;;;9.81;100.00
71195;BME280;58908;51.426;7.714;2024-02-04T10:29:40;100242.03;;;9.92;100.00
71195;BME280;58908;51.426;7.714;2024-02-04T10:32:07;100242.63;;;9.98;100.00
71195;BME280;58908;51.426;7.714;2024-02-04T10:34:35;100252.59;;;10.10;100.00
71195;BME280;58908;51.426;7.714;2024-02-04T10:37:02;100243.97;;;10.07;100.00
71195;BME280;58908;51.426;7.714;2024-02-04T10:39:28;100241.69;;;10.18;100.00
71195;BME280;58908;51.426;7.714;2024-02-04T10:41:56;100249.72;;;10.33;100.00
71195;BME280;58908;51.426;7.714;2024-02-04T10:44:27;100253.41;;;10.48;100.00
71195;BME280;58908;51.426;7.714;2024-02-04T10:46:54;100250.94;;;10.45;100.00
71195;BME280;58908;51.426;7.714;2024-02-04T10:49:21;100244.78;;;10.44;100.00
71195;BME280;58908;51.426;7.714;2024-02-04T10:51:49;100246.34;;;10.48;100.00
71195;BME280;58908;51.426;7.714;2024-02-04T10:54:17;100244.38;;;10.35;100.00
71195;BME280;58908;51.426;7.714;2024-02-04T10:56:50;100246.03;;;10.19;100.00
71195;BME280;58908;51.426;7.714;2024-02-04T10:59:21;100249.22;;;10.25;100.00
71195;BME280;58908;51.426;7.714;2024-02-04T11:01:48;100252.03;;;10.22;100.00
71195;BME280;58908;51.426;7.714;2024-02-04T11:04:14;100247.38;;;10.27;100.00
71195;BME280;58908;51.426;7.714;2024-02-04T11:06:43;100251.44;;;10.34;100.00
71195;BME280;58908;51.426;7.714;2024-02-04T11:09:12;100247.16;;;10.32;100.00
71195;BME280;58908;51.426;7.714;2024-02-04T11:11:39;100239.63;;;10.24;100.00
71195;BME280;58908;51.426;7.714;2024-02-04T11:14:07;100244.06;;;10.41;100.00
71195;BME280;58908;51.426;7.714;2024-02-04T11:16:49;100263.28;;;10.26;100.00
71195;BME280;58908;51.426;7.714;2024-02-04T11:19:23;100249.06;;;10.47;100.00
71195;BME280;58908;51.426;7.714;2024-02-04T11:22:11;100258.56;;;10.32;100.00
71195;BME280;58908;51.426;7.714;2024-02-04T11:24:43;100244.28;;;10.19;100.00
71195;BME280;58908;51.426;7.714;2024-02-04T11:27:13;100247.69;;;10.21;100.00
71195;BME280;58908;51.426;7.714;2024-02-04T11:29:40;100253.44;;;10.29;100.00
71195;BME280;58908;51.426;7.714;2024-02-04T11:32:08;100249.22;;;10.25;100.00
71195;BME280;58908;51.426;7.714;2024-02-04T11:34:35;100252.22;;;10.36;100.00
71195;BME280;58908;51.426;7.714;2024-02-04T11:37:13;100241.44;;;10.41;100.00
71195;BME280;58908;51.426;7.714;2024-02-04T11:39:47;100236.66;;;10.49;100.00
71195;BME280;58908;51.426;7.714;2024-02-04T11:42:13;100226.34;;;10.78;100.00
71195;BME280;58908;51.426;7.714;2024-02-04T11:44:40;100224.72;;;10.93;100.00
71195;BME280;58908;51.426;7.714;2024-02-04T11:47:06;100220.91;;;10.98;100.00
71195;BME280;58908;51.426;7.714;2024-02-04T11:49:33;100218.81;;;10.88;100.00
71195;BME280;58908;51.426;7.714;2024-02-04T11:52:00;100215.72;;;10.80;100.00
71195;BME280;58908;51.426;7.714;2024-02-04T11:54:26;100211.31;;;10.63;100.00
71195;BME280;58908;51.426;7.714;2024-02-04T11:56:52;100211.31;;;10.63;100.00
71195;BME280;58908;51.426;7.714;2024-02-04T11:59:20;100204.16;;;10.82;100.00
71195;BME280;58908;51.426;7.714;2024-02-04T12:01:47;100202.28;;;10.67;100.00
71195;BME280;58908;51.426;7.714;2024-02-04T12:04:14;100198.31;;;10.76;100.00
71195;BME280;58908;51.426;7.714;2024-02-04T12:06:42;100206.72;;;10.67;100.00
71195;BME280;58908;51.426;7.714;2024-02-04T12:09:09;100193.84;;;10.61;100.00
71195;BME280;58908;51.426;7.714;2024-02-04T12:11:35;100198.19;;;10.62;100.00
71195;BME280;58908;51.426;7.714;2024-02-04T12:14:02;100194.00;;;10.58;100.00
71195;BME280;58908;51.426;7.714;2024-02-04T12:16:30;100196.75;;;10.38;100.00
71195;BME280;58908;51.426;7.714;2024-02-04T12:18:57;100193.28;;;10.54;100.00
71195;BME280;58908;51.426;7.714;2024-02-04T12:21:24;100197.16;;;10.47;100.00
71195;BME280;58908;51.426;7.714;2024-02-04T12:23:52;100194.34;;;10.33;100.00
71195;BME280;58908;51.426;7.714;2024-02-04T12:26:18;100185.84;;;10.45;100.00
71195;BME280;58908;51.426;7.714;2024-02-04T12:28:44;100174.91;;;10.36;100.00
71195;BME280;58908;51.426;7.714;2024-02-04T12:31:16;100161.00;;;10.49;100.00
71195;BME280;58908;51.426;7.714;2024-02-04T12:33:42;100160.00;;;10.52;100.00
71195;BME280;58908;51.426;7.714;2024-02-04T12:36:09;100162.25;;;10.42;100.00
71195;BME280;58908;51.426;7.714;2024-02-04T12:38:35;100166.44;;;10.46;100.00
71195;BME280;58908;51.426;7.714;2024-02-04T12:41:04;100167.81;;;10.36;100.00
71195;BME280;58908;51.426;7.714;2024-02-04T12:43:30;100167.22;;;10.31;100.00
71195;BME280;58908;51.426;7.714;2024-02-04T12:45:56;100157.22;;;10.38;100.00